sensor_id;sensor_type;location;lat;lon;timestamp;pressure;altitude;pressure_sealevel;temperature;humidity
38880;BME280;25887;30.194;-97.880;2023-02-28T00:00:21;97838.59;;;29.29;24.27
38880;BME280;25887;30.194;-97.880;2023-02-28T00:02:48;97844.28;;;29.24;23.89
38880;BME280;25887;30.194;-97.880;2023-02-28T00:05:15;97846.59;;;29.18;24.21
38880;BME280;25887;30.194;-97.880;2023-02-28T00:07:41;97846.28;;;29.11;23.96
38880;BME280;25887;30.194;-97.880;2023-02-28T00:10:08;97857.25;;;29.06;24.17
38880;BME280;25887;30.194;-97.880;2023-02-28T00:12:35;97866.53;;;29.01;24.34
38880;BME280;25887;30.194;-97.880;2023-02-28T00:15:02;97860.81;;;28.96;24.49
38880;BME280;25887;30.194;-97.880;2023-02-28T00:17:30;97860.44;;;28.89;24.58
38880;BME280;25887;30.194;-97.880;2023-02-28T00:19:57;97858.16;;;28.84;24.14
38880;BME280;25887;30.194;-97.880;2023-02-28T00:22:27;97851.84;;;28.76;24.38
38880;BME280;25887;30.194;-97.880;2023-02-28T00:24:53;97851.50;;;28.69;24.16
38880;BME280;25887;30.194;-97.880;2023-02-28T00:27:19;97860.88;;;28.62;24.63
38880;BME280;25887;30.194;-97.880;2023-02-28T00:29:46;97854.44;;;28.55;24.14
38880;BME280;25887;30.194;-97.880;2023-02-28T00:32:35;97856.84;;;28.47;24.47
38880;BME280;25887;30.194;-97.880;2023-02-28T00:35:01;97864.56;;;28.39;24.14
38880;BME280;25887;30.194;-97.880;2023-02-28T00:37:27;97867.00;;;28.30;24.06
38880;BME280;25887;30.194;-97.880;2023-02-28T00:40:04;97866.88;;;28.21;24.13
38880;BME280;25887;30.194;-97.880;2023-02-28T00:42:50;97878.28;;;28.10;24.33
38880;BME280;25887;30.194;-97.880;2023-02-28T00:45:16;97886.91;;;28.01;24.32
38880;BME280;25887;30.194;-97.880;2023-02-28T00:47:41;97876.13;;;27.93;24.26
38880;BME280;25887;30.194;-97.880;2023-02-28T00:50:09;97885.72;;;27.83;24.73
38880;BME280;25887;30.194;-97.880;2023-02-28T00:52:35;97881.31;;;27.72;24.56
38880;BME280;25887;30.194;-97.880;2023-02-28T00:55:01;97884.63;;;27.63;24.34
38880;BME280;25887;30.194;-97.880;2023-02-28T01:00:30;97887.94;;;27.42;24.37
38880;BME280;25887;30.194;-97.880;2023-02-28T01:02:55;97896.69;;;27.32;24.35
38880;BME280;25887;30.194;-97.880;2023-02-28T01:05:21;97896.66;;;27.20;24.31
38880;BME280;25887;30.194;-97.880;2023-02-28T01:07:47;97896.38;;;27.12;24.42
38880;BME280;25887;30.194;-97.880;2023-02-28T01:10:13;97894.41;;;27.03;24.43
38880;BME280;25887;30.194;-97.880;2023-02-28T01:12:39;97894.25;;;26.93;24.58
38880;BME280;25887;30.194;-97.880;2023-02-28T01:15:05;97894.06;;;26.84;24.71
38880;BME280;25887;30.194;-97.880;2023-02-28T01:17:31;97898.34;;;26.74;24.83
38880;BME280;25887;30.194;-97.880;2023-02-28T01:23:08;97902.66;;;26.51;24.91
38880;BME280;25887;30.194;-97.880;2023-02-28T01:25:34;97907.75;;;26.41;24.91
38880;BME280;25887;30.194;-97.880;2023-02-28T01:28:00;97918.94;;;26.32;24.89
38880;BME280;25887;30.194;-97.880;2023-02-28T01:30:28;97925.06;;;26.20;24.98
38880;BME280;25887;30.194;-97.880;2023-02-28T01:32:54;97927.50;;;26.10;25.03
38880;BME280;25887;30.194;-97.880;2023-02-28T01:35:20;97934.38;;;26.00;25.01
38880;BME280;25887;30.194;-97.880;2023-02-28T01:37:46;97937.72;;;25.89;25.04
38880;BME280;25887;30.194;-97.880;2023-02-28T01:40:12;97951.63;;;25.78;25.04
38880;BME280;25887;30.194;-97.880;2023-02-28T01:42:38;97964.56;;;25.69;24.93
38880;BME280;25887;30.194;-97.880;2023-02-28T01:45:14;97964.25;;;25.61;25.13
38880;BME280;25887;30.194;-97.880;2023-02-28T01:47:39;97963.88;;;25.52;25.31
38880;BME280;25887;30.194;-97.880;2023-02-28T01:50:07;97961.88;;;25.43;25.30
38880;BME280;25887;30.194;-97.880;2023-02-28T01:52:35;97971.13;;;25.36;25.22
38880;BME280;25887;30.194;-97.880;2023-02-28T01:55:02;97973.63;;;25.25;25.05
38880;BME280;25887;30.194;-97.880;2023-02-28T01:57:50;97976.97;;;25.14;25.05
38880;BME280;25887;30.194;-97.880;2023-02-28T02:00:18;97966.19;;;25.05;25.33
38880;BME280;25887;30.194;-97.880;2023-02-28T02:02:49;97970.25;;;24.96;25.51
38880;BME280;25887;30.194;-97.880;2023-02-28T02:05:26;97965.47;;;24.88;25.46
38880;BME280;25887;30.194;-97.880;2023-02-28T02:07:57;97966.75;;;24.83;25.22
38880;BME280;25887;30.194;-97.880;2023-02-28T02:17:51;97971.13;;;24.55;25.51
38880;BME280;25887;30.194;-97.880;2023-02-28T02:22:52;97983.22;;;24.43;25.71
38880;BME280;25887;30.194;-97.880;2023-02-28T02:25:39;97984.56;;;24.36;25.92
38880;BME280;25887;30.194;-97.880;2023-02-28T02:33:28;97992.41;;;24.08;25.54
38880;BME280;25887;30.194;-97.880;2023-02-28T02:38:48;97997.34;;;23.84;25.86
38880;BME280;25887;30.194;-97.880;2023-02-28T02:43:46;98018.56;;;23.65;25.90
38880;BME280;25887;30.194;-97.880;2023-02-28T02:46:34;98025.16;;;23.56;25.84
38880;BME280;25887;30.194;-97.880;2023-02-28T02:49:00;98024.88;;;23.47;25.86
38880;BME280;25887;30.194;-97.880;2023-02-28T02:51:26;98027.09;;;23.39;26.02
38880;BME280;25887;30.194;-97.880;2023-02-28T02:53:57;98039.03;;;23.28;25.97
38880;BME280;25887;30.194;-97.880;2023-02-28T02:56:27;98033.63;;;23.16;26.35
38880;BME280;25887;30.194;-97.880;2023-02-28T02:58:55;98030.84;;;23.03;26.06
38880;BME280;25887;30.194;-97.880;2023-02-28T03:01:53;98029.03;;;22.89;26.18
38880;BME280;25887;30.194;-97.880;2023-02-28T03:04:22;98030.50;;;22.77;26.62
38880;BME280;25887;30.194;-97.880;2023-02-28T03:06:48;98033.03;;;22.63;26.33
38880;BME280;25887;30.194;-97.880;2023-02-28T03:09:23;98044.16;;;22.51;26.50
38880;BME280;25887;30.194;-97.880;2023-02-28T03:11:49;98052.75;;;22.37;26.66
38880;BME280;25887;30.194;-97.880;2023-02-28T03:14:25;98040.31;;;22.25;26.47
38880;BME280;25887;30.194;-97.880;2023-02-28T03:22:29;98041.41;;;21.86;26.58
38880;BME280;25887;30.194;-97.880;2023-02-28T03:25:07;98035.22;;;21.72;26.75
38880;BME280;25887;30.194;-97.880;2023-02-28T03:27:48;98039.44;;;21.57;26.95
38880;BME280;25887;30.194;-97.880;2023-02-28T03:30:29;98044.50;;;21.42;27.14
38880;BME280;25887;30.194;-97.880;2023-02-28T03:33:03;98044.25;;;21.30;27.15
38880;BME280;25887;30.194;-97.880;2023-02-28T03:35:32;98042.88;;;21.21;27.03
38880;BME280;25887;30.194;-97.880;2023-02-28T03:38:01;98044.03;;;21.15;27.25
38880;BME280;25887;30.194;-97.880;2023-02-28T03:40:30;98038.13;;;21.12;27.08
38880;BME280;25887;30.194;-97.880;2023-02-28T03:43:20;98026.19;;;21.06;27.21
38880;BME280;25887;30.194;-97.880;2023-02-28T03:45:48;98042.09;;;21.02;27.27
38880;BME280;25887;30.194;-97.880;2023-02-28T03:48:20;98041.38;;;20.98;27.30
38880;BME280;25887;30.194;-97.880;2023-02-28T03:50:48;98052.81;;;20.96;27.47
38880;BME280;25887;30.194;-97.880;2023-02-28T03:53:18;98050.41;;;20.91;27.54
38880;BME280;25887;30.194;-97.880;2023-02-28T03:55:54;98042.88;;;20.85;27.56
38880;BME280;25887;30.194;-97.880;2023-02-28T04:01:19;98053.63;;;20.79;27.68
38880;BME280;25887;30.194;-97.880;2023-02-28T04:03:46;98054.59;;;20.76;27.63
38880;BME280;25887;30.194;-97.880;2023-02-28T04:06:15;98071.25;;;20.74;27.56
38880;BME280;25887;30.194;-97.880;2023-02-28T04:11:36;98068.34;;;20.61;27.72
38880;BME280;25887;30.194;-97.880;2023-02-28T04:14:03;98074.72;;;20.55;27.95
38880;BME280;25887;30.194;-97.880;2023-02-28T04:16:30;98081.88;;;20.50;27.91
38880;BME280;25887;30.194;-97.880;2023-02-28T04:18:56;98083.00;;;20.45;28.11
38880;BME280;25887;30.194;-97.880;2023-02-28T04:21:28;98082.34;;;20.40;27.96
38880;BME280;25887;30.194;-97.880;2023-02-28T04:23:53;98088.75;;;20.33;28.06
38880;BME280;25887;30.194;-97.880;2023-02-28T04:29:30;98087.66;;;20.18;28.26
38880;BME280;25887;30.194;-97.880;2023-02-28T04:31:56;98081.91;;;20.10;28.21
38880;BME280;25887;30.194;-97.880;2023-02-28T04:34:26;98080.59;;;19.99;28.28
38880;BME280;25887;30.194;-97.880;2023-02-28T04:36:54;98074.88;;;19.91;28.27
38880;BME280;25887;30.194;-97.880;2023-02-28T04:45:07;98084.03;;;19.59;28.36
38880;BME280;25887;30.194;-97.880;2023-02-28T04:47:45;98085.22;;;19.51;28.48
38880;BME280;25887;30.194;-97.880;2023-02-28T04:50:11;98087.22;;;19.44;28.44
38880;BME280;25887;30.194;-97.880;2023-02-28T04:52:38;98087.59;;;19.35;28.54
38880;BME280;25887;30.194;-97.880;2023-02-28T04:55:04;98087.97;;;19.26;28.57
38880;BME280;25887;30.194;-97.880;2023-02-28T04:57:30;98084.88;;;19.16;28.52
38880;BME280;25887;30.194;-97.880;2023-02-28T04:59:56;98084.34;;;19.08;28.66
38880;BME280;25887;30.194;-97.880;2023-02-28T05:02:42;98094.22;;;19.00;28.88
38880;BME280;25887;30.194;-97.880;2023-02-28T05:05:08;98101.41;;;18.93;28.72
38880;BME280;25887;30.194;-97.880;2023-02-28T05:07:34;98085.28;;;18.83;28.75
38880;BME280;25887;30.194;-97.880;2023-02-28T05:10:00;98099.47;;;18.75;29.05
38880;BME280;25887;30.194;-97.880;2023-02-28T05:12:25;98090.19;;;18.68;28.93
38880;BME280;25887;30.194;-97.880;2023-02-28T05:14:51;98092.16;;;18.61;28.94
38880;BME280;25887;30.194;-97.880;2023-02-28T05:17:35;98080.38;;;18.51;29.00
38880;BME280;25887;30.194;-97.880;2023-02-28T05:20:01;98085.78;;;18.46;29.20
38880;BME280;25887;30.194;-97.880;2023-02-28T05:22:29;98090.34;;;18.40;29.04
38880;BME280;25887;30.194;-97.880;2023-02-28T05:24:55;98084.44;;;18.34;29.41
38880;BME280;25887;30.194;-97.880;2023-02-28T05:27:21;98092.38;;;18.31;29.43
38880;BME280;25887;30.194;-97.880;2023-02-28T05:29:47;98088.22;;;18.26;29.23
38880;BME280;25887;30.194;-97.880;2023-02-28T05:32:15;98087.50;;;18.22;29.38
38880;BME280;25887;30.194;-97.880;2023-02-28T05:34:41;98087.59;;;18.19;29.68
38880;BME280;25887;30.194;-97.880;2023-02-28T05:37:10;98085.91;;;18.18;29.53
38880;BME280;25887;30.194;-97.880;2023-02-28T05:39:37;98082.50;;;18.16;29.63
38880;BME280;25887;30.194;-97.880;2023-02-28T05:42:20;98083.41;;;18.15;29.72
38880;BME280;25887;30.194;-97.880;2023-02-28T05:44:46;98094.66;;;18.16;29.66
38880;BME280;25887;30.194;-97.880;2023-02-28T05:47:17;98092.91;;;18.16;29.83
38880;BME280;25887;30.194;-97.880;2023-02-28T05:49:43;98084.22;;;18.17;29.91
38880;BME280;25887;30.194;-97.880;2023-02-28T05:52:09;98085.91;;;18.18;29.73
38880;BME280;25887;30.194;-97.880;2023-02-28T05:54:35;98085.91;;;18.18;29.93
38880;BME280;25887;30.194;-97.880;2023-02-28T05:57:14;98078.09;;;18.18;30.00
38880;BME280;25887;30.194;-97.880;2023-02-28T05:59:40;98085.00;;;18.19;30.03
38880;BME280;25887;30.194;-97.880;2023-02-28T06:02:08;98083.25;;;18.20;29.98
38880;BME280;25887;30.194;-97.880;2023-02-28T06:04:36;98081.47;;;18.22;30.27
38880;BME280;25887;30.194;-97.880;2023-02-28T06:07:02;98074.44;;;18.24;30.17
38880;BME280;25887;30.194;-97.880;2023-02-28T06:09:28;98073.47;;;18.26;30.33
38880;BME280;25887;30.194;-97.880;2023-02-28T06:12:14;98075.97;;;18.29;30.18
38880;BME280;25887;30.194;-97.880;2023-02-28T06:14:41;98081.97;;;18.31;30.21
38880;BME280;25887;30.194;-97.880;2023-02-28T06:17:08;98081.84;;;18.34;30.36
38880;BME280;25887;30.194;-97.880;2023-02-28T06:19:46;98079.19;;;18.36;30.40
38880;BME280;25887;30.194;-97.880;2023-02-28T06:22:13;98088.66;;;18.38;30.49
38880;BME280;25887;30.194;-97.880;2023-02-28T06:24:39;98087.69;;;18.41;30.30
38880;BME280;25887;30.194;-97.880;2023-02-28T06:27:05;98084.09;;;18.44;30.41
38880;BME280;25887;30.194;-97.880;2023-02-28T06:29:31;98079.59;;;18.49;30.40
38880;BME280;25887;30.194;-97.880;2023-02-28T06:31:57;98073.31;;;18.54;30.47
38880;BME280;25887;30.194;-97.880;2023-02-28T06:34:23;98075.72;;;18.60;30.46
38880;BME280;25887;30.194;-97.880;2023-02-28T06:36:50;98071.97;;;18.68;30.46
38880;BME280;25887;30.194;-97.880;2023-02-28T06:39:16;98066.53;;;18.74;30.58
38880;BME280;25887;30.194;-97.880;2023-02-28T06:41:43;98074.97;;;18.80;30.46
38880;BME280;25887;30.194;-97.880;2023-02-28T06:44:27;98067.72;;;18.88;30.50
38880;BME280;25887;30.194;-97.880;2023-02-28T06:47:00;98069.19;;;18.96;30.45
38880;BME280;25887;30.194;-97.880;2023-02-28T06:49:41;98068.97;;;19.02;30.51
38880;BME280;25887;30.194;-97.880;2023-02-28T06:52:07;98068.72;;;19.08;30.48
38880;BME280;25887;30.194;-97.880;2023-02-28T06:54:34;98066.75;;;19.13;30.57
38880;BME280;25887;30.194;-97.880;2023-02-28T06:56:59;98074.41;;;19.17;30.46
38880;BME280;25887;30.194;-97.880;2023-02-28T06:59:25;98069.88;;;19.23;30.54
38880;BME280;25887;30.194;-97.880;2023-02-28T07:01:51;98064.47;;;19.27;30.55
38880;BME280;25887;30.194;-97.880;2023-02-28T07:04:17;98060.84;;;19.31;30.48
38880;BME280;25887;30.194;-97.880;2023-02-28T07:06:44;98055.50;;;19.34;30.51
38880;BME280;25887;30.194;-97.880;2023-02-28T07:09:29;98046.66;;;19.38;30.48
38880;BME280;25887;30.194;-97.880;2023-02-28T07:11:56;98039.56;;;19.42;30.49
38880;BME280;25887;30.194;-97.880;2023-02-28T07:14:22;98035.97;;;19.44;30.44
38880;BME280;25887;30.194;-97.880;2023-02-28T07:16:48;98029.81;;;19.47;30.36
38880;BME280;25887;30.194;-97.880;2023-02-28T07:19:15;98036.63;;;19.49;30.36
38880;BME280;25887;30.194;-97.880;2023-02-28T07:21:41;98040.94;;;19.51;30.35
38880;BME280;25887;30.194;-97.880;2023-02-28T07:24:07;98040.00;;;19.52;30.30
38880;BME280;25887;30.194;-97.880;2023-02-28T07:26:33;98036.50;;;19.53;30.34
38880;BME280;25887;30.194;-97.880;2023-02-28T07:29:01;98045.13;;;19.55;30.38
38880;BME280;25887;30.194;-97.880;2023-02-28T07:31:47;98036.38;;;19.56;30.25
38880;BME280;25887;30.194;-97.880;2023-02-28T07:34:23;98029.41;;;19.56;30.39
38880;BME280;25887;30.194;-97.880;2023-02-28T07:36:49;98024.16;;;19.58;30.29
38880;BME280;25887;30.194;-97.880;2023-02-28T07:39:20;98029.31;;;19.59;30.27
38880;BME280;25887;30.194;-97.880;2023-02-28T07:41:47;98032.75;;;19.60;30.26
38880;BME280;25887;30.194;-97.880;2023-02-28T07:44:13;98031.91;;;19.59;30.33
38880;BME280;25887;30.194;-97.880;2023-02-28T07:46:39;98034.44;;;19.61;30.35
38880;BME280;25887;30.194;-97.880;2023-02-28T07:49:05;98036.16;;;19.62;30.35
38880;BME280;25887;30.194;-97.880;2023-02-28T07:51:31;98028.34;;;19.62;30.23
38880;BME280;25887;30.194;-97.880;2023-02-28T07:53:57;98029.19;;;19.62;30.27
38880;BME280;25887;30.194;-97.880;2023-02-28T07:56:23;98033.50;;;19.63;30.25
38880;BME280;25887;30.194;-97.880;2023-02-28T07:58:49;98036.03;;;19.65;30.42
38880;BME280;25887;30.194;-97.880;2023-02-28T08:01:14;98029.06;;;19.65;30.35
38880;BME280;25887;30.194;-97.880;2023-02-28T08:03:40;98032.50;;;19.66;30.44
38880;BME280;25887;30.194;-97.880;2023-02-28T08:06:07;98032.44;;;19.67;30.34
38880;BME280;25887;30.194;-97.880;2023-02-28T08:08:33;98028.88;;;19.70;30.42
38880;BME280;25887;30.194;-97.880;2023-02-28T08:10:59;98030.63;;;19.69;30.46
38880;BME280;25887;30.194;-97.880;2023-02-28T08:13:26;98028.81;;;19.71;30.63
38880;BME280;25887;30.194;-97.880;2023-02-28T08:15:53;98021.75;;;19.73;30.62
38880;BME280;25887;30.194;-97.880;2023-02-28T08:18:39;98018.22;;;19.74;30.59
38880;BME280;25887;30.194;-97.880;2023-02-28T08:21:06;98021.63;;;19.76;30.66
38880;BME280;25887;30.194;-97.880;2023-02-28T08:23:31;98012.06;;;19.77;30.71
38880;BME280;25887;30.194;-97.880;2023-02-28T08:26:01;98012.91;;;19.78;30.90
38880;BME280;25887;30.194;-97.880;2023-02-28T08:28:27;98009.38;;;19.79;31.16
38880;BME280;25887;30.194;-97.880;2023-02-28T08:30:53;98017.13;;;19.80;31.19
38880;BME280;25887;30.194;-97.880;2023-02-28T08:33:20;98016.22;;;19.81;31.37
38880;BME280;25887;30.194;-97.880;2023-02-28T08:35:46;98017.00;;;19.83;31.59
38880;BME280;25887;30.194;-97.880;2023-02-28T08:38:13;98009.13;;;19.85;31.62
38880;BME280;25887;30.194;-97.880;2023-02-28T08:40:39;98007.28;;;19.87;31.74
38880;BME280;25887;30.194;-97.880;2023-02-28T08:43:05;98006.31;;;19.89;31.83
38880;BME280;25887;30.194;-97.880;2023-02-28T08:45:51;98001.09;;;19.89;31.90
38880;BME280;25887;30.194;-97.880;2023-02-28T08:48:17;98001.00;;;19.91;32.16
38880;BME280;25887;30.194;-97.880;2023-02-28T08:50:42;97999.25;;;19.91;32.38
38880;BME280;25887;30.194;-97.880;2023-02-28T08:53:27;97988.81;;;19.91;32.56
38880;BME280;25887;30.194;-97.880;2023-02-28T08:56:03;97995.75;;;19.92;32.87
38880;BME280;25887;30.194;-97.880;2023-02-28T08:58:42;97997.44;;;19.93;32.89
38880;BME280;25887;30.194;-97.880;2023-02-28T09:01:12;97986.09;;;19.94;33.13
38880;BME280;25887;30.194;-97.880;2023-02-28T09:03:39;97996.53;;;19.94;33.39
38880;BME280;25887;30.194;-97.880;2023-02-28T09:06:06;97995.63;;;19.95;33.45
38880;BME280;25887;30.194;-97.880;2023-02-28T09:08:32;97998.22;;;19.95;33.67
38880;BME280;25887;30.194;-97.880;2023-02-28T09:11:13;97999.84;;;19.98;33.81
38880;BME280;25887;30.194;-97.880;2023-02-28T09:13:39;98001.59;;;19.97;33.82
38880;BME280;25887;30.194;-97.880;2023-02-28T09:16:06;97993.69;;;19.99;33.99
38880;BME280;25887;30.194;-97.880;2023-02-28T09:18:33;97994.53;;;19.99;34.21
38880;BME280;25887;30.194;-97.880;2023-02-28T09:21:03;97998.03;;;20.00;34.24
38880;BME280;25887;30.194;-97.880;2023-02-28T09:23:50;97993.66;;;20.00;34.62
38880;BME280;25887;30.194;-97.880;2023-02-28T09:26:27;97988.44;;;20.00;34.77
38880;BME280;25887;30.194;-97.880;2023-02-28T09:28:53;97984.00;;;20.02;34.85
38880;BME280;25887;30.194;-97.880;2023-02-28T09:31:21;97983.09;;;20.03;35.07
38880;BME280;25887;30.194;-97.880;2023-02-28T09:33:48;97981.25;;;20.06;35.36
38880;BME280;25887;30.194;-97.880;2023-02-28T09:36:32;97980.31;;;20.07;36.06
38880;BME280;25887;30.194;-97.880;2023-02-28T09:38:58;97994.16;;;20.09;36.00
38880;BME280;25887;30.194;-97.880;2023-02-28T09:41:25;97982.81;;;20.10;36.10
38880;BME280;25887;30.194;-97.880;2023-02-28T09:43:56;97986.19;;;20.12;36.21
38880;BME280;25887;30.194;-97.880;2023-02-28T09:48:58;97983.44;;;20.15;36.39
38880;BME280;25887;30.194;-97.880;2023-02-28T09:54:26;97992.06;;;20.17;36.94
38880;BME280;25887;30.194;-97.880;2023-02-28T09:56:55;97982.53;;;20.16;37.24
38880;BME280;25887;30.194;-97.880;2023-02-28T10:02:21;97980.78;;;20.16;37.28
38880;BME280;25887;30.194;-97.880;2023-02-28T10:07:39;97979.13;;;20.14;37.54
38880;BME280;25887;30.194;-97.880;2023-02-28T10:10:42;97979.13;;;20.14;37.63
38880;BME280;25887;30.194;-97.880;2023-02-28T10:13:02;97977.53;;;20.11;37.47
38880;BME280;25887;30.194;-97.880;2023-02-28T10:15:30;97974.91;;;20.11;37.56
38880;BME280;25887;30.194;-97.880;2023-02-28T10:18:11;97973.22;;;20.10;37.50
38880;BME280;25887;30.194;-97.880;2023-02-28T10:20:39;97978.53;;;20.09;37.61
38880;BME280;25887;30.194;-97.880;2023-02-28T10:25:38;97985.50;;;20.08;37.58
38880;BME280;25887;30.194;-97.880;2023-02-28T10:28:09;97991.56;;;20.09;37.73
38880;BME280;25887;30.194;-97.880;2023-02-28T10:30:39;97995.97;;;20.07;37.82
38880;BME280;25887;30.194;-97.880;2023-02-28T10:33:08;97994.28;;;20.06;37.93
38880;BME280;25887;30.194;-97.880;2023-02-28T10:35:40;98006.34;;;20.08;38.05
38880;BME280;25887;30.194;-97.880;2023-02-28T10:38:10;98009.84;;;20.07;37.92
38880;BME280;25887;30.194;-97.880;2023-02-28T10:40:40;98015.06;;;20.07;37.96
38880;BME280;25887;30.194;-97.880;2023-02-28T10:43:17;98014.22;;;20.07;38.01
38880;BME280;25887;30.194;-97.880;2023-02-28T10:51:37;98002.25;;;20.02;38.22
38880;BME280;25887;30.194;-97.880;2023-02-28T10:54:03;97999.66;;;20.02;38.27
38880;BME280;25887;30.194;-97.880;2023-02-28T10:56:30;97996.19;;;20.02;38.36
38880;BME280;25887;30.194;-97.880;2023-02-28T10:59:03;98002.25;;;20.02;38.35
38880;BME280;25887;30.194;-97.880;2023-02-28T11:01:47;98018.66;;;20.04;38.28
38880;BME280;25887;30.194;-97.880;2023-02-28T11:04:20;98013.53;;;20.03;38.52
38880;BME280;25887;30.194;-97.880;2023-02-28T11:07:16;98016.06;;;20.04;38.58
38880;BME280;25887;30.194;-97.880;2023-02-28T11:09:44;98007.31;;;20.06;38.45
38880;BME280;25887;30.194;-97.880;2023-02-28T11:18:01;98008.16;;;20.06;38.91
38880;BME280;25887;30.194;-97.880;2023-02-28T11:20:29;98014.22;;;20.07;39.01
38880;BME280;25887;30.194;-97.880;2023-02-28T11:22:56;98016.84;;;20.07;39.00
38880;BME280;25887;30.194;-97.880;2023-02-28T11:25:24;98017.63;;;20.09;39.13
38880;BME280;25887;30.194;-97.880;2023-02-28T11:27:52;98009.81;;;20.09;39.16
38880;BME280;25887;30.194;-97.880;2023-02-28T11:30:25;98008.06;;;20.09;39.14
38880;BME280;25887;30.194;-97.880;2023-02-28T11:32:51;98014.97;;;20.10;39.30
38880;BME280;25887;30.194;-97.880;2023-02-28T11:35:20;98018.47;;;20.09;39.36
38880;BME280;25887;30.194;-97.880;2023-02-28T11:37:48;98026.31;;;20.09;39.44
38880;BME280;25887;30.194;-97.880;2023-02-28T11:40:15;98029.88;;;20.07;39.39
38880;BME280;25887;30.194;-97.880;2023-02-28T11:53:56;98036.34;;;19.98;39.83
38880;BME280;25887;30.194;-97.880;2023-02-28T11:56:25;98032.19;;;19.94;39.99
38880;BME280;25887;30.194;-97.880;2023-02-28T12:01:47;98024.69;;;19.86;39.99
38880;BME280;25887;30.194;-97.880;2023-02-28T12:07:27;98025.09;;;19.77;40.18
38880;BME280;25887;30.194;-97.880;2023-02-28T12:13:20;98036.69;;;19.70;40.38
38880;BME280;25887;30.194;-97.880;2023-02-28T12:15:28;98032.50;;;19.66;40.38
38880;BME280;25887;30.194;-97.880;2023-02-28T12:18:08;98033.50;;;19.63;40.54
38880;BME280;25887;30.194;-97.880;2023-02-28T12:28:43;98032.19;;;19.52;40.62
38880;BME280;25887;30.194;-97.880;2023-02-28T12:33:45;98048.94;;;19.46;40.70
38880;BME280;25887;30.194;-97.880;2023-02-28T12:36:26;98046.53;;;19.41;40.90
38880;BME280;25887;30.194;-97.880;2023-02-28T12:38:55;98048.41;;;19.38;40.99
38880;BME280;25887;30.194;-97.880;2023-02-28T12:44:17;98048.66;;;19.32;41.06
38880;BME280;25887;30.194;-97.880;2023-02-28T12:46:45;98052.22;;;19.29;41.13
38880;BME280;25887;30.194;-97.880;2023-02-28T12:52:17;98056.78;;;19.24;41.29
38880;BME280;25887;30.194;-97.880;2023-02-28T12:55:04;98054.28;;;19.21;41.35
38880;BME280;25887;30.194;-97.880;2023-02-28T12:57:48;98061.38;;;19.17;41.45
38880;BME280;25887;30.194;-97.880;2023-02-28T13:00:17;98062.41;;;19.13;41.55
38880;BME280;25887;30.194;-97.880;2023-02-28T13:08:32;98069.88;;;19.01;41.82
38880;BME280;25887;30.194;-97.880;2023-02-28T13:11:05;98075.13;;;18.99;42.12
38880;BME280;25887;30.194;-97.880;2023-02-28T13:13:31;98075.16;;;18.98;42.30
38880;BME280;25887;30.194;-97.880;2023-02-28T13:18:34;98093.41;;;18.98;42.48
38880;BME280;25887;30.194;-97.880;2023-02-28T13:21:27;98093.41;;;18.98;42.56
38880;BME280;25887;30.194;-97.880;2023-02-28T13:28:59;98111.69;;;18.96;42.81
38880;BME280;25887;30.194;-97.880;2023-02-28T13:31:26;98111.69;;;18.96;42.79
38880;BME280;25887;30.194;-97.880;2023-02-28T13:34:14;98114.22;;;18.98;43.05
38880;BME280;25887;30.194;-97.880;2023-02-28T13:36:41;98118.66;;;18.96;43.15
38880;BME280;25887;30.194;-97.880;2023-02-28T13:41:51;98128.06;;;19.00;42.90
38880;BME280;25887;30.194;-97.880;2023-02-28T13:44:21;98130.59;;;19.01;42.95
38880;BME280;25887;30.194;-97.880;2023-02-28T13:52:14;98147.56;;;19.11;43.12
38880;BME280;25887;30.194;-97.880;2023-02-28T13:54:45;98154.28;;;19.17;43.24
38880;BME280;25887;30.194;-97.880;2023-02-28T14:05:34;98173.59;;;20.00;43.35
38880;BME280;25887;30.194;-97.880;2023-02-28T14:08:04;98168.63;;;20.35;43.38
38880;BME280;25887;30.194;-97.880;2023-02-28T14:10:36;98185.34;;;20.51;43.40
38880;BME280;25887;30.194;-97.880;2023-02-28T14:18:41;98178.78;;;20.82;43.26
38880;BME280;25887;30.194;-97.880;2023-02-28T14:21:16;98179.44;;;20.87;42.83
38880;BME280;25887;30.194;-97.880;2023-02-28T14:32:02;98199.28;;;20.30;44.06
38880;BME280;25887;30.194;-97.880;2023-02-28T14:34:41;98189.97;;;20.24;44.02
38880;BME280;25887;30.194;-97.880;2023-02-28T14:37:13;98206.47;;;20.25;44.17
38880;BME280;25887;30.194;-97.880;2023-02-28T14:39:41;98199.41;;;20.27;44.17
38880;BME280;25887;30.194;-97.880;2023-02-28T14:42:26;98201.88;;;20.30;44.27
38880;BME280;25887;30.194;-97.880;2023-02-28T14:44:53;98195.94;;;20.48;44.21
38880;BME280;25887;30.194;-97.880;2023-02-28T14:47:21;98185.84;;;20.80;43.93
38880;BME280;25887;30.194;-97.880;2023-02-28T14:49:49;98190.59;;;20.91;43.91
38880;BME280;25887;30.194;-97.880;2023-02-28T14:52:52;98192.84;;;20.98;44.16
38880;BME280;25887;30.194;-97.880;2023-02-28T14:55:23;98193.28;;;21.08;44.26
38880;BME280;25887;30.194;-97.880;2023-02-28T14:58:31;98206.34;;;21.08;44.28
38880;BME280;25887;30.194;-97.880;2023-02-28T15:04:21;98207.84;;;21.13;44.53
38880;BME280;25887;30.194;-97.880;2023-02-28T15:12:37;98202.31;;;21.40;44.63
38880;BME280;25887;30.194;-97.880;2023-02-28T15:15:05;98199.50;;;21.62;44.39
38880;BME280;25887;30.194;-97.880;2023-02-28T15:17:42;98202.47;;;21.73;44.60
38880;BME280;25887;30.194;-97.880;2023-02-28T15:20:14;98198.66;;;21.80;44.24
38880;BME280;25887;30.194;-97.880;2023-02-28T15:22:40;98200.66;;;21.92;44.10
38880;BME280;25887;30.194;-97.880;2023-02-28T15:25:06;98198.22;;;22.07;44.07
38880;BME280;25887;30.194;-97.880;2023-02-28T15:27:33;98200.41;;;22.16;44.80
38880;BME280;25887;30.194;-97.880;2023-02-28T15:30:07;98199.94;;;22.25;44.28
38880;BME280;25887;30.194;-97.880;2023-02-28T15:32:34;98190.84;;;22.32;44.25
38880;BME280;25887;30.194;-97.880;2023-02-28T15:35:25;98186.03;;;22.42;44.50
38880;BME280;25887;30.194;-97.880;2023-02-28T15:40:41;98179.44;;;22.68;44.66